Time;durP1;ratioP1;P1;durP2;ratioP2;P2;SDS_P1;SDS_P2;PMS_P1;PMS_P2;Temp;Humidity;BMP_temperature;BMP_pressure;BME280_temperature;BME280_humidity;BME280_pressure;Samples;Min_cycle;Max_cycle;Signal;HPM_P1;HPM_P2
2023/03/14 00:00:37;;;;;;;8.07;7.87;;;9.20;99.90;;;;;;5048845;28;20212;-82
2023/03/14 00:03:09;;;;;;;8.20;8.00;;;9.20;99.90;;;;;;5051861;28;21150;-83
2023/03/14 00:05:39;;;;;;;7.90;7.70;;;9.20;99.90;;;;;;5049566;28;20250;-82
2023/03/14 00:08:08;;;;;;;8.00;7.80;;;9.20;99.90;;;;;;5048008;28;20227;-83
2023/03/14 00:10:37;;;;;;;8.10;7.90;;;9.20;99.90;;;;;;5046310;28;20227;-83
2023/03/14 00:13:05;;;;;;;8.40;8.20;;;9.20;99.90;;;;;;5046706;28;20239;-83
2023/03/14 00:15:35;;;;;;;8.40;8.20;;;9.20;99.90;;;;;;5049041;28;20316;-83
2023/03/14 00:18:06;;;;;;;8.13;7.93;;;9.20;99.90;;;;;;5051660;28;20224;-80
2023/03/14 00:20:34;;;;;;;8.30;8.10;;;9.20;99.90;;;;;;5058891;28;20236;-82
2023/03/14 00:23:11;;;;;;;8.20;8.00;;;9.20;99.90;;;;;;5044798;28;20258;-83
2023/03/14 00:25:41;;;;;;;8.40;8.20;;;9.20;99.90;;;;;;5042372;28;20282;-83
2023/03/14 00:28:12;;;;;;;8.20;8.00;;;9.20;99.90;;;;;;5043926;28;20259;-83
2023/03/14 00:30:40;;;;;;;8.17;7.97;;;9.20;99.90;;;;;;5046281;28;20224;-83
2023/03/14 00:33:10;;;;;;;8.57;8.37;;;9.20;99.90;;;;;;5047454;28;20275;-83
2023/03/14 00:35:39;;;;;;;8.57;8.37;;;9.30;99.90;;;;;;5050226;28;20235;-83
2023/03/14 00:38:21;;;;;;;8.63;8.43;;;9.30;99.90;;;;;;5050418;28;20235;-85
2023/03/14 00:40:48;;;;;;;8.87;8.57;;;9.30;99.90;;;;;;5051246;28;20314;-82
2023/03/14 00:43:18;;;;;;;8.60;8.40;;;9.40;99.90;;;;;;5052468;28;20263;-83
2023/03/14 00:45:46;;;;;;;8.63;8.43;;;9.40;99.90;;;;;;5054063;28;20299;-84
2023/03/14 00:48:15;;;;;;;9.10;8.80;;;9.40;99.90;;;;;;5054421;28;20224;-84
2023/03/14 00:50:44;;;;;;;8.60;8.40;;;9.50;99.90;;;;;;5058132;28;20227;-84
2023/03/14 00:56:03;;;;;;;8.70;8.50;;;9.50;99.90;;;;;;5061663;28;20215;-83
2023/03/14 00:58:31;;;;;;;8.70;8.50;;;9.50;99.90;;;;;;5060320;28;20247;-82
2023/03/14 01:01:01;;;;;;;8.60;8.40;;;9.50;99.90;;;;;;5060615;28;20307;-81
2023/03/14 01:03:29;;;;;;;8.47;8.27;;;9.60;99.90;;;;;;5060922;28;20295;-81
2023/03/14 01:06:10;;;;;;;9.20;8.90;;;9.50;99.90;;;;;;5061746;28;20246;-82
2023/03/14 01:08:40;;;;;;;9.00;8.70;;;9.60;99.90;;;;;;5061228;28;20223;-81
2023/03/14 01:11:17;;;;;;;9.17;8.87;;;9.60;99.90;;;;;;5061590;28;20208;-82
2023/03/14 01:13:45;;;;;;;9.00;8.70;;;9.50;99.90;;;;;;5061941;28;20211;-82
2023/03/14 01:16:14;;;;;;;9.10;8.80;;;9.60;99.90;;;;;;5061524;28;20311;-82
2023/03/14 01:18:44;;;;;;;8.80;8.60;;;9.60;99.90;;;;;;5061216;28;20234;-81
2023/03/14 01:24:08;;;;;;;9.10;8.80;;;9.60;99.90;;;;;;5061380;28;20242;-82
2023/03/14 01:26:38;;;;;;;9.07;8.77;;;9.60;99.90;;;;;;5060816;28;20235;-81
2023/03/14 01:29:07;;;;;;;9.07;8.77;;;9.60;99.90;;;;;;5060788;28;20223;-82
2023/03/14 01:31:36;;;;;;;8.97;8.67;;;9.60;99.90;;;;;;5061386;28;20295;-83
2023/03/14 01:34:06;;;;;;;9.10;8.80;;;9.60;99.90;;;;;;5060731;28;20284;-82
2023/03/14 01:36:35;;;;;;;9.00;8.70;;;9.60;99.90;;;;;;5060596;28;20291;-83
2023/03/14 01:39:08;;;;;;;9.00;8.70;;;9.60;99.90;;;;;;5054987;28;20234;-83
2023/03/14 01:41:36;;;;;;;8.77;8.57;;;9.60;99.90;;;;;;5060449;28;20215;-83
2023/03/14 01:44:04;;;;;;;9.27;8.97;;;9.60;99.90;;;;;;5053043;28;20267;-83
2023/03/14 01:46:44;;;;;;;9.20;8.90;;;9.60;99.90;;;;;;5059832;28;20246;-83
2023/03/14 01:49:31;;;;;;;9.33;9.03;;;9.60;99.90;;;;;;5060602;28;20219;-82
2023/03/14 01:52:07;;;;;;;9.17;8.87;;;9.60;99.90;;;;;;5057524;28;20284;-83
2023/03/14 01:54:45;;;;;;;9.00;8.70;;;9.60;99.90;;;;;;5059217;28;20255;-82
2023/03/14 01:57:24;;;;;;;9.00;8.70;;;9.60;99.90;;;;;;5052359;28;20250;-83
2023/03/14 01:59:56;;;;;;;9.10;8.80;;;9.60;99.90;;;;;;5049628;28;20254;-83
2023/03/14 02:02:27;;;;;;;9.13;8.83;;;9.60;99.90;;;;;;5047214;28;20243;-83
2023/03/14 02:04:56;;;;;;;9.00;8.70;;;9.60;99.90;;;;;;5046914;28;20327;-83
2023/03/14 02:07:33;;;;;;;9.10;8.80;;;9.60;99.90;;;;;;5052831;28;20247;-83
2023/03/14 02:10:11;;;;;;;9.13;8.83;;;9.60;99.90;;;;;;5045874;28;20287;-83
2023/03/14 02:12:40;;;;;;;8.83;8.57;;;9.60;99.90;;;;;;5045172;28;20294;-84
2023/03/14 02:15:10;;;;;;;9.13;8.83;;;9.70;99.90;;;;;;5045396;28;20234;-83
2023/03/14 02:17:39;;;;;;;9.20;8.90;;;9.70;99.90;;;;;;5044781;28;20250;-83
2023/03/14 02:20:25;;;;;;;9.10;8.80;;;9.80;99.90;;;;;;5046065;28;20314;-83
2023/03/14 02:22:56;;;;;;;9.17;8.87;;;9.70;99.90;;;;;;5044934;28;20338;-83
2023/03/14 02:25:43;;;;;;;9.30;9.00;;;9.70;99.90;;;;;;5044510;28;20263;-83
2023/03/14 02:28:15;;;;;;;9.03;8.73;;;9.80;99.90;;;;;;5054711;28;20231;-83
2023/03/14 02:30:43;;;;;;;9.07;8.77;;;9.70;99.90;;;;;;5059451;28;20240;-82
2023/03/14 02:35:59;;;;;;;9.20;8.90;;;9.60;99.90;;;;;;5049530;28;20228;-85
2023/03/14 02:38:34;;;;;;;9.10;8.80;;;9.60;99.90;;;;;;5046540;28;20231;-85
2023/03/14 02:41:06;;;;;;;9.20;8.90;;;9.60;99.90;;;;;;5043806;28;20231;-82
2023/03/14 02:43:37;;;;;;;9.27;8.97;;;9.60;99.90;;;;;;5042199;28;20242;-83
2023/03/14 02:46:07;;;;;;;9.17;8.87;;;9.60;99.90;;;;;;5042463;28;20223;-83
2023/03/14 02:48:43;;;;;;;9.00;8.70;;;9.60;99.90;;;;;;5046133;28;20232;-83
2023/03/14 02:51:12;;;;;;;9.20;8.90;;;9.70;99.90;;;;;;5045361;28;20243;-83
2023/03/14 02:53:42;;;;;;;9.07;8.77;;;9.70;99.90;;;;;;5045959;28;20232;-83
2023/03/14 02:56:11;;;;;;;8.90;8.60;;;9.70;99.90;;;;;;5044547;28;20255;-83
2023/03/14 02:58:44;;;;;;;8.67;8.47;;;9.60;99.90;;;;;;5044163;28;20236;-83
2023/03/14 03:01:11;;;;;;;8.80;8.60;;;9.60;99.90;;;;;;5044205;28;20273;-81
2023/03/14 03:03:39;;;;;;;8.63;8.43;;;9.60;99.90;;;;;;5043398;28;20231;-83
2023/03/14 03:06:09;;;;;;;8.80;8.60;;;9.50;99.90;;;;;;5044247;28;20295;-83
2023/03/14 03:08:39;;;;;;;8.83;8.63;;;9.50;99.90;;;;;;5044227;28;20286;-83
2023/03/14 03:11:07;;;;;;;8.70;8.50;;;9.40;99.90;;;;;;5043237;28;20283;-83
2023/03/14 03:13:37;;;;;;;9.00;8.70;;;9.40;99.90;;;;;;5043320;28;20241;-83
2023/03/14 03:16:15;;;;;;;9.10;8.80;;;9.30;99.90;;;;;;5053107;28;20238;-83
2023/03/14 03:18:44;;;;;;;8.97;8.67;;;9.40;99.90;;;;;;5046964;28;20219;-83
2023/03/14 03:21:14;;;;;;;8.70;8.50;;;9.30;99.90;;;;;;5049034;28;20266;-83
2023/03/14 03:23:44;;;;;;;8.97;8.67;;;9.30;99.90;;;;;;5046825;28;20242;-82
2023/03/14 03:26:13;;;;;;;9.03;8.73;;;9.20;99.90;;;;;;5044917;28;20339;-83
2023/03/14 03:28:42;;;;;;;8.90;8.60;;;9.20;99.90;;;;;;5045358;28;20231;-83
2023/03/14 03:31:14;;;;;;;9.00;8.70;;;9.20;99.90;;;;;;5050869;28;20250;-82
2023/03/14 03:33:42;;;;;;;8.97;8.67;;;9.20;99.90;;;;;;5049853;28;20307;-83
2023/03/14 03:36:11;;;;;;;9.10;8.80;;;9.20;99.90;;;;;;5047995;28;21085;-83
2023/03/14 03:38:40;;;;;;;8.77;8.57;;;9.20;99.90;;;;;;5046318;28;20236;-82
2023/03/14 03:41:10;;;;;;;9.00;8.70;;;9.20;99.90;;;;;;5045241;28;20239;-83
2023/03/14 03:43:39;;;;;;;8.60;8.40;;;9.20;99.90;;;;;;5044374;28;20315;-83
2023/03/14 03:46:09;;;;;;;8.67;8.47;;;9.20;99.90;;;;;;5043957;28;20235;-83
2023/03/14 03:48:41;;;;;;;8.80;8.60;;;9.20;99.90;;;;;;5043879;28;20334;-83
2023/03/14 03:51:08;;;;;;;9.17;8.87;;;9.10;99.90;;;;;;5047523;28;20230;-82
2023/03/14 03:53:36;;;;;;;9.00;8.70;;;9.10;99.90;;;;;;5058520;28;20223;-80
2023/03/14 03:56:06;;;;;;;8.73;8.53;;;9.10;99.90;;;;;;5055039;28;20228;-83
2023/03/14 03:58:38;;;;;;;8.80;8.60;;;9.10;99.90;;;;;;5043856;28;20239;-83
2023/03/14 04:01:07;;;;;;;8.70;8.50;;;9.10;99.90;;;;;;5043496;28;20261;-83
2023/03/14 04:03:38;;;;;;;9.00;8.70;;;9.10;99.90;;;;;;5045352;28;20239;-83
2023/03/14 04:06:14;;;;;;;9.20;8.90;;;9.10;99.90;;;;;;5048569;28;20271;-83
2023/03/14 04:08:44;;;;;;;9.20;8.90;;;9.10;99.90;;;;;;5054377;28;20265;-83
2023/03/14 04:11:13;;;;;;;9.40;9.10;;;9.00;99.90;;;;;;5054183;28;20259;-83
2023/03/14 04:13:43;;;;;;;9.27;8.97;;;9.00;99.90;;;;;;5050525;28;20238;-83
2023/03/14 04:16:21;;;;;;;9.20;8.90;;;9.00;99.90;;;;;;5049010;28;20261;-83
2023/03/14 04:18:50;;;;;;;9.27;8.97;;;9.00;99.90;;;;;;5048103;28;20250;-83
2023/03/14 04:21:29;;;;;;;8.93;8.63;;;9.10;99.90;;;;;;5050309;28;21041;-82
2023/03/14 04:23:58;;;;;;;8.93;8.63;;;9.00;99.90;;;;;;5048292;28;20227;-83
2023/03/14 04:26:27;;;;;;;8.80;8.60;;;9.00;99.90;;;;;;5045149;28;20442;-83
2023/03/14 04:28:58;;;;;;;8.80;8.60;;;9.00;99.90;;;;;;5045006;28;20315;-83
2023/03/14 04:31:27;;;;;;;8.53;8.33;;;9.00;99.90;;;;;;5045566;28;20235;-84
2023/03/14 04:33:56;;;;;;;8.50;8.30;;;9.00;99.90;;;;;;5047378;28;20320;-84
2023/03/14 04:36:29;;;;;;;8.50;8.30;;;9.00;99.90;;;;;;5046300;28;20294;-84
2023/03/14 04:38:56;;;;;;;8.70;8.50;;;9.00;99.90;;;;;;5047814;28;20239;-85
2023/03/14 04:41:24;;;;;;;8.30;8.10;;;9.00;99.90;;;;;;5048320;28;20231;-84
2023/03/14 04:43:54;;;;;;;8.10;7.90;;;9.00;99.90;;;;;;5048769;28;20227;-84
2023/03/14 04:46:23;;;;;;;8.50;8.30;;;8.90;99.90;;;;;;5047793;28;20235;-85
2023/03/14 04:48:52;;;;;;;8.40;8.20;;;8.90;99.90;;;;;;5044783;28;20251;-84
2023/03/14 04:51:27;;;;;;;8.37;8.17;;;8.90;99.90;;;;;;5045316;28;20257;-84
2023/03/14 04:54:00;;;;;;;8.67;8.47;;;8.90;99.90;;;;;;5050867;28;20223;-84
2023/03/14 04:56:30;;;;;;;8.47;8.27;;;8.90;99.90;;;;;;5048209;28;20327;-84
2023/03/14 04:58:59;;;;;;;8.40;8.20;;;8.80;99.90;;;;;;5047251;28;20236;-84
2023/03/14 05:01:28;;;;;;;8.80;8.60;;;8.80;99.90;;;;;;5046429;28;20232;-84
2023/03/14 05:03:58;;;;;;;8.80;8.60;;;8.80;99.90;;;;;;5046146;28;20301;-84
2023/03/14 05:06:27;;;;;;;8.40;8.20;;;8.80;99.90;;;;;;5045208;28;20271;-85
2023/03/14 05:08:59;;;;;;;9.00;8.70;;;8.80;99.90;;;;;;5045459;28;20246;-84
2023/03/14 05:11:27;;;;;;;8.70;8.50;;;8.80;99.90;;;;;;5046302;28;20286;-84
2023/03/14 05:13:55;;;;;;;8.70;8.50;;;8.80;99.90;;;;;;5045156;28;20224;-85
2023/03/14 05:16:25;;;;;;;8.70;8.50;;;8.80;99.90;;;;;;5045430;28;20327;-85
2023/03/14 05:18:54;;;;;;;8.73;8.53;;;8.80;99.90;;;;;;5044314;28;20310;-85
2023/03/14 05:21:24;;;;;;;9.00;8.70;;;8.80;99.90;;;;;;5044789;28;20227;-84
2023/03/14 05:23:54;;;;;;;9.10;8.80;;;8.70;99.90;;;;;;5045885;28;20291;-85
2023/03/14 05:26:25;;;;;;;9.10;8.80;;;8.70;99.90;;;;;;5044417;28;20327;-85
2023/03/14 05:28:53;;;;;;;9.67;9.37;;;8.70;99.90;;;;;;5045018;28;20258;-85
2023/03/14 05:31:22;;;;;;;9.60;9.30;;;8.70;99.90;;;;;;5045864;28;20298;-83
2023/03/14 05:33:51;;;;;;;9.57;9.27;;;8.70;99.90;;;;;;5055894;28;20228;-85
2023/03/14 05:36:20;;;;;;;9.87;9.57;;;8.60;99.90;;;;;;5050233;28;20242;-85
2023/03/14 05:38:50;;;;;;;9.60;9.30;;;8.60;99.90;;;;;;5049224;28;20258;-84
2023/03/14 05:41:19;;;;;;;9.73;9.43;;;8.60;99.90;;;;;;5028050;28;20244;-84
2023/03/14 05:43:56;;;;;;;9.60;9.30;;;8.60;99.90;;;;;;5027588;28;20224;-84
2023/03/14 05:46:29;;;;;;;9.67;9.37;;;8.60;99.90;;;;;;5027058;28;20267;-84
2023/03/14 05:48:56;;;;;;;9.57;9.27;;;8.60;99.90;;;;;;5026674;28;20315;-85
2023/03/14 05:51:26;;;;;;;9.50;9.20;;;8.60;99.90;;;;;;5025927;28;20226;-85
2023/03/14 05:53:55;;;;;;;9.60;9.30;;;8.60;99.90;;;;;;5026546;28;20255;-84
2023/03/14 05:56:24;;;;;;;9.17;8.87;;;8.60;99.90;;;;;;5027027;28;20263;-84
2023/03/14 05:59:02;;;;;;;9.43;9.13;;;8.60;99.90;;;;;;5026504;28;20391;-84
2023/03/14 06:01:33;;;;;;;9.40;9.10;;;8.60;99.90;;;;;;5024886;28;20326;-85
2023/03/14 06:04:04;;;;;;;9.30;9.00;;;8.60;99.90;;;;;;5025440;28;20231;-85
2023/03/14 06:06:36;;;;;;;9.33;9.03;;;8.60;99.90;;;;;;5038349;28;20235;-84
2023/03/14 06:09:04;;;;;;;9.20;8.90;;;8.60;99.90;;;;;;5040572;28;20224;-84
2023/03/14 06:11:33;;;;;;;9.30;9.00;;;8.70;99.90;;;;;;5038615;28;20239;-85
2023/03/14 06:14:04;;;;;;;9.10;8.80;;;8.70;99.90;;;;;;5030760;28;20315;-84
2023/03/14 06:16:32;;;;;;;9.20;8.90;;;8.70;99.90;;;;;;5021562;28;20292;-85
2023/03/14 06:19:01;;;;;;;9.50;9.20;;;8.70;99.90;;;;;;5028425;28;21054;-85
2023/03/14 06:21:30;;;;;;;9.20;8.90;;;8.70;99.90;;;;;;5037945;28;20225;-85
2023/03/14 06:23:59;;;;;;;9.10;8.80;;;8.70;99.90;;;;;;5037358;28;20247;-83
2023/03/14 06:26:29;;;;;;;9.17;8.87;;;8.70;99.90;;;;;;5034879;28;20256;-83
2023/03/14 06:29:01;;;;;;;9.37;9.07;;;8.70;99.90;;;;;;5025398;28;20247;-83
2023/03/14 06:31:31;;;;;;;9.40;9.10;;;8.80;99.90;;;;;;5029764;28;20251;-83
2023/03/14 06:33:58;;;;;;;9.00;8.70;;;8.80;99.90;;;;;;5029811;28;20267;-83
2023/03/14 06:36:26;;;;;;;8.70;8.50;;;8.80;99.90;;;;;;5029148;28;20299;-83
2023/03/14 06:38:56;;;;;;;8.40;8.20;;;8.80;99.90;;;;;;5029176;28;20239;-85
2023/03/14 06:41:26;;;;;;;8.53;8.33;;;8.80;99.90;;;;;;5028132;28;20244;-83
2023/03/14 06:43:56;;;;;;;8.97;8.67;;;8.80;99.90;;;;;;5028401;28;20236;-83
2023/03/14 06:46:24;;;;;;;9.20;8.90;;;8.80;99.90;;;;;;5028802;28;20246;-83
2023/03/14 06:51:41;;;;;;;8.93;8.70;;;8.80;99.90;;;;;;5026509;28;20234;-83
2023/03/14 06:54:10;;;;;;;8.70;8.50;;;8.90;99.90;;;;;;5028078;28;20291;-85
2023/03/14 06:56:40;;;;;;;8.60;8.40;;;8.90;99.90;;;;;;5028061;28;20232;-83
2023/03/14 06:59:09;;;;;;;8.80;8.60;;;8.90;99.90;;;;;;5031207;28;20232;-84
2023/03/14 07:01:39;;;;;;;8.90;8.70;;;9.00;99.90;;;;;;5009905;28;20243;-84
2023/03/14 07:06:55;;;;;;;8.90;8.67;;;9.00;99.90;;;;;;5007260;28;20256;-83
2023/03/14 07:09:24;;;;;;;8.80;8.60;;;9.00;99.90;;;;;;5006244;28;20236;-84
2023/03/14 07:11:54;;;;;;;8.80;8.60;;;9.00;99.90;;;;;;5006214;28;20251;-83
2023/03/14 07:14:23;;;;;;;8.77;8.57;;;9.00;99.90;;;;;;5005808;28;20240;-83
2023/03/14 07:16:53;;;;;;;8.63;8.43;;;9.10;99.90;;;;;;5006168;28;20239;-84
2023/03/14 07:19:24;;;;;;;8.57;8.37;;;9.10;99.90;;;;;;5005422;28;20240;-84
2023/03/14 07:21:51;;;;;;;8.80;8.60;;;9.10;99.90;;;;;;5004868;28;20229;-83
2023/03/14 07:24:21;;;;;;;9.03;8.73;;;9.20;99.90;;;;;;5008649;28;20219;-83
2023/03/14 07:26:50;;;;;;;8.97;8.67;;;9.20;99.90;;;;;;5007274;28;20331;-83
2023/03/14 07:29:20;;;;;;;9.10;8.80;;;9.20;99.90;;;;;;5007748;28;20240;-83
2023/03/14 07:31:49;;;;;;;8.80;8.60;;;9.20;99.90;;;;;;5006678;28;20272;-84
2023/03/14 07:34:19;;;;;;;8.70;8.50;;;9.20;99.90;;;;;;5007988;28;20307;-83
2023/03/14 07:36:51;;;;;;;8.30;8.10;;;9.30;99.90;;;;;;5006787;28;20242;-83
2023/03/14 07:39:18;;;;;;;9.07;8.77;;;9.30;99.90;;;;;;5019564;28;20233;-83
2023/03/14 07:41:48;;;;;;;9.00;8.70;;;9.30;99.90;;;;;;5031039;28;20228;-83
2023/03/14 07:44:17;;;;;;;9.33;9.03;;;9.30;99.90;;;;;;5030576;28;20216;-84
2023/03/14 07:46:46;;;;;;;8.77;8.57;;;9.30;99.90;;;;;;5035021;28;20235;-83
2023/03/14 07:49:15;;;;;;;8.80;8.60;;;9.30;99.90;;;;;;5037817;28;20275;-84
2023/03/14 07:51:44;;;;;;;8.70;8.50;;;9.40;99.90;;;;;;5026452;28;20323;-84
2023/03/14 07:54:20;;;;;;;8.50;8.30;;;9.40;99.90;;;;;;5028894;28;20228;-84
2023/03/14 07:59:30;;;;;;;9.40;9.10;;;9.60;99.90;;;;;;5028493;28;20236;-86
2023/03/14 08:02:05;;;;;;;9.70;9.40;;;9.60;99.90;;;;;;5028797;28;20243;-85
2023/03/14 08:04:34;;;;;;;9.80;9.50;;;9.70;99.90;;;;;;5031779;28;20215;-86
2023/03/14 08:07:01;;;;;;;9.87;9.57;;;9.70;99.90;;;;;;5030012;28;20267;-86
2023/03/14 08:09:42;;;;;;;9.70;9.40;;;9.80;99.90;;;;;;5028776;28;20299;-86
2023/03/14 08:12:10;;;;;;;10.00;9.70;;;9.80;99.90;;;;;;5027159;28;20292;-86
2023/03/14 08:14:38;;;;;;;9.87;9.57;;;9.90;99.90;;;;;;5026919;28;20236;-86
2023/03/14 08:17:08;;;;;;;9.97;9.67;;;10.00;99.90;;;;;;5025871;28;20238;-86
2023/03/14 08:19:37;;;;;;;9.93;9.63;;;10.10;99.90;;;;;;5026568;28;20228;-86
2023/03/14 08:22:07;;;;;;;10.20;9.90;;;10.10;99.90;;;;;;5026618;28;20308;-86
2023/03/14 08:24:39;;;;;;;9.80;9.50;;;10.20;99.90;;;;;;5027044;28;20247;-85
2023/03/14 08:27:06;;;;;;;9.60;9.30;;;10.20;99.90;;;;;;5026960;28;20232;-86
2023/03/14 08:29:35;;;;;;;9.70;9.40;;;10.30;99.90;;;;;;5027644;28;20232;-86
2023/03/14 08:32:04;;;;;;;9.87;9.57;;;10.40;99.90;;;;;;5025796;28;20324;-87
2023/03/14 08:34:34;;;;;;;9.70;9.40;;;10.40;99.90;;;;;;5025142;28;20233;-86
2023/03/14 08:37:03;;;;;;;9.80;9.50;;;10.40;99.90;;;;;;5029680;28;20212;-86
2023/03/14 08:39:32;;;;;;;9.50;9.20;;;10.50;99.90;;;;;;5038139;28;20228;-86
2023/03/14 08:42:14;;;;;;;9.83;9.53;;;10.50;99.90;;;;;;5032320;28;20243;-86
2023/03/14 08:44:41;;;;;;;9.90;9.60;;;10.60;99.90;;;;;;5026648;28;20231;-86
2023/03/14 08:47:10;;;;;;;9.90;9.60;;;10.60;99.90;;;;;;5027546;28;20246;-85
2023/03/14 08:49:39;;;;;;;9.23;8.93;;;10.60;99.90;;;;;;5024747;28;20323;-86
2023/03/14 08:52:08;;;;;;;9.10;8.80;;;10.70;99.90;;;;;;5025641;28;20279;-86
2023/03/14 08:54:38;;;;;;;9.27;8.97;;;10.80;99.90;;;;;;5025075;28;20307;-87
2023/03/14 08:57:17;;;;;;;9.40;9.10;;;10.90;99.90;;;;;;5023937;28;20271;-87
2023/03/14 08:59:46;;;;;;;9.33;9.03;;;11.00;99.90;;;;;;5023765;28;20243;-86
2023/03/14 09:02:16;;;;;;;9.10;8.80;;;11.10;99.90;;;;;;5023699;28;20303;-86
2023/03/14 09:04:44;;;;;;;9.17;8.87;;;11.10;99.90;;;;;;5028305;28;20270;-86
2023/03/14 09:07:14;;;;;;;9.40;9.10;;;11.30;99.90;;;;;;5027384;28;20269;-84
2023/03/14 09:09:44;;;;;;;10.00;9.70;;;11.40;99.90;;;;;;5028949;28;20283;-84
2023/03/14 09:15:00;;;;;;;10.00;9.70;;;11.40;99.90;;;;;;5025829;28;20231;-85
2023/03/14 09:17:29;;;;;;;10.00;9.70;;;11.50;99.90;;;;;;5026357;28;20298;-83
2023/03/14 09:19:58;;;;;;;9.90;9.60;;;11.60;99.90;;;;;;5023319;28;20232;-80
2023/03/14 09:22:28;;;;;;;9.77;9.47;;;11.60;99.90;;;;;;5022983;28;20282;-82
2023/03/14 09:24:57;;;;;;;10.00;9.70;;;11.60;99.90;;;;;;5023670;28;20266;-85
2023/03/14 09:27:35;;;;;;;10.20;9.90;;;11.70;99.90;;;;;;5024244;28;20298;-85
2023/03/14 09:30:05;;;;;;;9.93;9.63;;;11.80;99.90;;;;;;5024157;28;20271;-85
2023/03/14 09:32:34;;;;;;;10.00;9.70;;;11.90;99.90;;;;;;5024350;28;20242;-85
2023/03/14 09:35:04;;;;;;;9.50;9.20;;;12.00;99.90;;;;;;5024928;28;20220;-86
2023/03/14 09:37:33;;;;;;;9.70;9.40;;;12.10;99.90;;;;;;5032780;28;20231;-89
2023/03/14 09:40:41;;;;;;;10.20;9.90;;;12.20;99.90;;;;;;5030835;28;20283;-87
2023/03/14 09:43:17;;;;;;;10.00;9.70;;;12.20;99.90;;;;;;5023825;28;20255;-85
2023/03/14 09:45:47;;;;;;;9.87;9.57;;;12.10;99.90;;;;;;5023846;28;20227;-86
2023/03/14 09:48:24;;;;;;;10.00;9.70;;;12.10;99.90;;;;;;5023778;28;20242;-85
2023/03/14 09:50:56;;;;;;;9.90;9.60;;;12.00;99.90;;;;;;5024039;28;20260;-84
2023/03/14 09:53:33;;;;;;;9.90;9.60;;;12.00;99.90;;;;;;5025275;28;20267;-85
2023/03/14 09:56:01;;;;;;;9.60;9.30;;;12.10;99.90;;;;;;5033825;28;20199;-85
2023/03/14 09:58:39;;;;;;;9.67;9.37;;;12.10;99.90;;;;;;5040242;28;20220;-85
2023/03/14 10:01:17;;;;;;;10.10;9.80;;;12.00;99.90;;;;;;5039419;28;20251;-85
2023/03/14 10:03:49;;;;;;;9.83;9.53;;;12.00;99.90;;;;;;5035786;28;20243;-86
2023/03/14 10:06:19;;;;;;;9.77;9.47;;;12.00;99.90;;;;;;5039635;28;20222;-86
2023/03/14 10:08:48;;;;;;;9.70;9.40;;;12.00;99.90;;;;;;5037199;28;20256;-87
2023/03/14 10:11:18;;;;;;;9.70;9.40;;;12.00;99.90;;;;;;5022072;28;20232;-87
2023/03/14 10:14:05;;;;;;;9.63;9.33;;;12.00;99.90;;;;;;5022446;28;20286;-85
2023/03/14 10:16:43;;;;;;;9.60;9.30;;;12.10;99.90;;;;;;5022523;28;20232;-87
2023/03/14 10:19:14;;;;;;;9.70;9.40;;;12.10;99.90;;;;;;5022496;28;20283;-86
2023/03/14 10:21:43;;;;;;;9.80;9.50;;;12.20;99.90;;;;;;5025875;28;20275;-86
2023/03/14 10:24:24;;;;;;;9.90;9.60;;;12.10;99.90;;;;;;5026124;28;20259;-87
2023/03/14 10:27:01;;;;;;;10.00;9.70;;;12.10;99.90;;;;;;5023555;28;20271;-85
2023/03/14 10:32:23;;;;;;;9.70;9.40;;;12.10;99.90;;;;;;5024017;28;20244;-83
2023/03/14 10:35:20;;;;;;;9.40;9.10;;;12.20;99.90;;;;;;5028962;28;20220;-86
2023/03/14 10:37:57;;;;;;;9.40;9.10;;;12.20;99.90;;;;;;5031608;28;20216;-85
2023/03/14 10:40:35;;;;;;;9.80;9.50;;;12.30;99.90;;;;;;5032523;28;20236;-83
2023/03/14 10:43:07;;;;;;;9.73;9.43;;;12.30;99.90;;;;;;5029868;28;20259;-84
2023/03/14 10:45:43;;;;;;;10.00;9.70;;;12.40;99.90;;;;;;5032406;28;20240;-86
2023/03/14 10:48:30;;;;;;;10.13;9.83;;;12.40;99.90;;;;;;5027122;28;20270;-85
2023/03/14 10:51:08;;;;;;;9.70;9.40;;;12.40;99.90;;;;;;5013577;28;20228;-85
2023/03/14 10:53:48;;;;;;;9.93;9.63;;;12.30;99.90;;;;;;5026533;28;20334;-85
2023/03/14 10:56:19;;;;;;;9.70;9.40;;;12.30;99.90;;;;;;5026955;28;20255;-85
2023/03/14 10:58:48;;;;;;;9.60;9.30;;;12.30;99.90;;;;;;5026181;28;20269;-85
2023/03/14 11:01:50;;;;;;;9.53;9.23;;;12.30;99.90;;;;;;5024597;28;20746;-86
2023/03/14 11:07:24;;;;;;;9.47;9.17;;;12.10;99.90;;;;;;5024146;28;20231;-87
2023/03/14 11:12:51;;;;;;;9.67;9.37;;;11.90;99.90;;;;;;5021401;28;20235;-87
2023/03/14 11:15:28;;;;;;;9.50;9.20;;;11.90;99.90;;;;;;5021491;28;20290;-87
2023/03/14 11:21:22;;;;;;;9.60;9.30;;;11.90;99.90;;;;;;5020741;28;20323;-86
2023/03/14 11:24:15;;;;;;;9.63;9.33;;;11.80;99.90;;;;;;5023159;28;20268;-86
2023/03/14 11:26:53;;;;;;;10.03;9.73;;;11.80;99.90;;;;;;5032910;28;20243;-86
2023/03/14 11:29:31;;;;;;;9.90;9.60;;;11.70;99.90;;;;;;5027659;28;20243;-86
2023/03/14 11:32:03;;;;;;;9.60;9.30;;;11.70;99.90;;;;;;5028954;28;20256;-85
2023/03/14 11:34:56;;;;;;;9.70;9.40;;;12.10;99.90;;;;;;5027357;28;20223;-86
2023/03/14 11:37:37;;;;;;;9.90;9.60;;;12.70;99.90;;;;;;5025224;28;20236;-86
2023/03/14 11:40:15;;;;;;;10.13;9.83;;;13.30;99.90;;;;;;5025607;28;20236;-86
2023/03/14 11:42:51;;;;;;;9.90;9.60;;;13.70;99.90;;;;;;5025940;28;20239;-85
2023/03/14 11:45:30;;;;;;;10.10;9.80;;;14.00;99.90;;;;;;5026442;28;20248;-86
2023/03/14 11:48:18;;;;;;;10.10;9.80;;;13.90;99.90;;;;;;5025539;28;20235;-86
2023/03/14 11:50:55;;;;;;;10.10;9.80;;;13.60;99.90;;;;;;5024943;28;20232;-86
2023/03/14 11:53:37;;;;;;;10.07;9.77;;;13.50;99.90;;;;;;5023244;28;20304;-87
2023/03/14 11:56:12;;;;;;;10.00;9.70;;;13.20;99.90;;;;;;5021624;28;20246;-88
2023/03/14 11:58:51;;;;;;;10.10;9.80;;;13.10;99.90;;;;;;5002125;28;20271;-87
2023/03/14 12:01:31;;;;;;;9.83;9.53;;;13.00;99.90;;;;;;5009594;28;20236;-87
2023/03/14 12:04:07;;;;;;;9.77;9.47;;;13.00;99.90;;;;;;5020785;28;20318;-77
2023/03/14 12:06:48;;;;;;;10.17;9.87;;;13.00;99.90;;;;;;5022054;28;20239;-84
2023/03/14 12:09:18;;;;;;;9.97;9.67;;;13.20;99.90;;;;;;5023358;28;20236;-82
2023/03/14 12:11:57;;;;;;;10.00;9.70;;;13.60;99.90;;;;;;5021059;28;20244;-83
2023/03/14 12:14:32;;;;;;;9.80;9.50;;;14.20;99.90;;;;;;5022202;28;20280;-82
2023/03/14 12:17:08;;;;;;;10.20;9.90;;;14.70;99.90;;;;;;5022486;28;20320;-84
2023/03/14 12:19:41;;;;;;;9.93;9.63;;;14.90;99.90;;;;;;5021974;28;20236;-83
2023/03/14 12:22:28;;;;;;;9.93;9.63;;;14.70;99.90;;;;;;5020675;28;20239;-83
2023/03/14 12:25:06;;;;;;;9.55;9.25;;;14.60;99.90;;;;;;5017625;28;20260;-82
2023/03/14 12:27:53;;;;;;;9.50;9.20;;;14.50;99.90;;;;;;5024791;28;20232;-82
2023/03/14 12:30:30;;;;;;;10.20;9.90;;;14.30;99.90;;;;;;5023854;28;20236;-84
2023/03/14 12:33:35;;;;;;;10.03;9.73;;;14.10;99.90;;;;;;5024074;28;20323;-84
2023/03/14 12:36:57;;;;;;;10.13;9.83;;;14.10;99.90;;;;;;5024042;28;20235;-83
2023/03/14 12:42:40;;;;;;;9.90;9.60;;;14.30;99.90;;;;;;5004648;28;20276;-86
2023/03/14 12:45:36;;;;;;;9.43;9.13;;;14.20;99.90;;;;;;5006081;28;20339;-83
2023/03/14 12:48:22;;;;;;;9.40;9.10;;;14.00;99.90;;;;;;4998096;28;20448;-82
2023/03/14 12:51:01;;;;;;;9.50;9.20;;;13.90;99.90;;;;;;5006724;28;20244;-82
2023/03/14 12:54:08;;;;;;;9.50;9.20;;;13.80;99.90;;;;;;5008226;28;20312;-84
2023/03/14 12:57:10;;;;;;;9.60;9.30;;;13.70;99.90;;;;;;5023162;28;20319;-87
2023/03/14 12:59:40;;;;;;;10.13;9.83;;;13.50;99.90;;;;;;5022243;28;20283;-84
2023/03/14 13:02:27;;;;;;;10.23;9.93;;;13.10;99.90;;;;;;5023905;28;20295;-87
2023/03/14 13:05:05;;;;;;;10.00;9.70;;;12.60;99.90;;;;;;5023506;28;20279;-85
2023/03/14 13:07:38;;;;;;;10.00;9.70;;;12.30;99.90;;;;;;5026867;28;20246;-84
2023/03/14 13:10:22;;;;;;;9.90;9.60;;;12.10;99.90;;;;;;5025915;28;20228;-83
2023/03/14 13:13:00;;;;;;;9.73;9.43;;;12.00;99.90;;;;;;5025207;28;20236;-84
2023/03/14 13:18:17;;;;;;;9.87;9.57;;;11.70;99.90;;;;;;5025335;28;20230;-83
2023/03/14 13:20:55;;;;;;;10.03;9.73;;;11.50;99.90;;;;;;5034012;28;20283;-84
2023/03/14 13:23:26;;;;;;;10.10;9.80;;;11.40;99.90;;;;;;5025572;28;20294;-83
2023/03/14 13:25:54;;;;;;;10.23;9.93;;;11.30;99.90;;;;;;5027391;28;20228;-83
2023/03/14 13:28:25;;;;;;;10.20;9.90;;;11.20;99.90;;;;;;5027665;28;20242;-82
2023/03/14 13:31:01;;;;;;;10.33;10.03;;;11.00;99.90;;;;;;5035454;28;20228;-82
2023/03/14 13:33:30;;;;;;;10.43;10.13;;;10.90;99.90;;;;;;5033074;28;20262;-83
2023/03/14 13:35:59;;;;;;;10.20;9.90;;;10.80;99.90;;;;;;5029246;28;20228;-82
2023/03/14 13:38:29;;;;;;;10.50;10.20;;;10.60;99.90;;;;;;5026822;28;20224;-82
2023/03/14 13:41:00;;;;;;;10.30;10.00;;;10.50;99.90;;;;;;5029108;28;20235;-84
2023/03/14 13:43:37;;;;;;;10.20;9.90;;;10.40;99.90;;;;;;5026603;28;20271;-84
2023/03/14 13:46:08;;;;;;;9.90;9.60;;;10.30;99.90;;;;;;5027125;28;20259;-82
2023/03/14 13:48:44;;;;;;;10.50;10.20;;;10.30;99.90;;;;;;5026346;28;20260;-82
2023/03/14 13:51:15;;;;;;;10.30;10.00;;;10.20;99.90;;;;;;5025484;28;20307;-82
2023/03/14 13:56:31;;;;;;;9.87;9.57;;;10.10;99.90;;;;;;5023936;28;20228;-82
2023/03/14 13:59:02;;;;;;;9.77;9.47;;;10.00;99.90;;;;;;5027323;28;20243;-82